createdAt,value
2018-07-03T00:01:06.385Z,0.53
2018-07-03T00:03:32.288Z,0.40
2018-07-03T00:05:58.227Z,0.40
2018-07-03T00:08:24.149Z,0.60
2018-07-03T00:10:50.074Z,0.40
2018-07-03T00:13:15.970Z,0.67
2018-07-03T00:15:41.894Z,0.47
2018-07-03T00:18:07.801Z,0.60
2018-07-03T00:20:33.737Z,0.60
2018-07-03T00:22:59.657Z,0.40
2018-07-03T00:25:25.578Z,0.40
2018-07-03T00:27:51.511Z,0.50
2018-07-03T00:30:17.446Z,0.40
2018-07-03T00:32:43.374Z,0.90
2018-07-03T00:35:09.283Z,0.50
2018-07-03T00:37:35.207Z,0.50
2018-07-03T00:40:01.136Z,0.60
2018-07-03T00:42:27.034Z,0.60
2018-07-03T00:44:52.964Z,0.40
2018-07-03T00:47:18.862Z,0.60
2018-07-03T00:49:44.793Z,0.23
2018-07-03T00:52:10.696Z,0.50
2018-07-03T00:54:36.636Z,0.43
2018-07-03T00:57:02.543Z,0.60
2018-07-03T00:59:28.474Z,0.77
2018-07-03T01:01:54.401Z,0.33
2018-07-03T01:04:20.307Z,0.50
2018-07-03T01:06:46.231Z,0.50
2018-07-03T01:09:12.140Z,0.67
2018-07-03T01:11:38.065Z,0.60
2018-07-03T01:14:03.993Z,0.50
2018-07-03T01:16:29.923Z,0.60
2018-07-03T01:18:55.831Z,0.50
2018-07-03T01:21:21.742Z,0.57
2018-07-03T01:23:47.670Z,0.60
2018-07-03T01:26:13.574Z,0.43
2018-07-03T01:28:40.251Z,0.53
2018-07-03T01:31:06.132Z,0.80
2018-07-03T01:33:32.796Z,0.43
2018-07-03T01:35:58.713Z,0.40
2018-07-03T01:38:24.660Z,0.50
2018-07-03T01:40:50.564Z,0.43
2018-07-03T01:43:16.470Z,0.40
2018-07-03T01:45:43.123Z,0.40
2018-07-03T01:48:09.060Z,0.40
2018-07-03T01:50:35.006Z,0.40
2018-07-03T01:53:00.913Z,0.30
2018-07-03T01:55:26.836Z,0.47
2018-07-03T01:57:52.748Z,1.03
2018-07-03T02:00:18.679Z,0.47
2018-07-03T02:02:45.320Z,0.20
2018-07-03T02:05:11.227Z,0.30
2018-07-03T02:07:37.149Z,0.50
2018-07-03T02:10:03.094Z,0.30
2018-07-03T02:12:29.031Z,0.30
2018-07-03T02:14:54.934Z,0.40
2018-07-03T02:17:20.870Z,0.30
2018-07-03T02:19:46.808Z,0.37
2018-07-03T02:22:13.464Z,0.80
2018-07-03T02:24:39.391Z,0.43
2018-07-03T02:27:05.290Z,0.20
2018-07-03T02:29:31.957Z,0.27
2018-07-03T02:31:57.854Z,0.20
2018-07-03T02:34:24.515Z,0.30
2018-07-03T02:36:50.422Z,0.37
2018-07-03T02:39:17.132Z,0.17
2018-07-03T02:41:43.026Z,0.40
2018-07-03T02:44:08.953Z,0.73
2018-07-03T02:46:34.898Z,0.30
2018-07-03T02:49:00.798Z,0.20
2018-07-03T02:51:26.727Z,0.37
2018-07-03T02:53:53.398Z,0.20
2018-07-03T02:56:20.078Z,0.20
2018-07-03T02:58:45.992Z,0.30
2018-07-03T03:01:11.901Z,0.30
2018-07-03T03:03:37.822Z,0.60
2018-07-03T03:06:03.716Z,0.23
2018-07-03T03:08:30.389Z,0.33
2018-07-03T03:10:56.290Z,0.37
2018-07-03T03:13:22.952Z,0.30
2018-07-03T03:15:48.864Z,0.30
2018-07-03T03:18:14.795Z,1.27
2018-07-03T03:20:40.714Z,0.23
2018-07-03T03:23:06.616Z,0.70
2018-07-03T03:25:33.281Z,0.40
2018-07-03T03:27:59.206Z,0.30
2018-07-03T03:30:25.161Z,0.30
2018-07-03T03:32:51.063Z,0.20
2018-07-03T03:35:17.233Z,0.60
2018-07-03T03:37:43.134Z,0.20
2018-07-03T03:40:09.088Z,0.43
2018-07-03T03:42:35.779Z,0.40
2018-07-03T03:45:01.701Z,0.37
2018-07-03T03:47:27.695Z,0.30
2018-07-03T03:49:53.632Z,0.20
2018-07-03T03:52:19.550Z,0.20
2018-07-03T03:54:45.464Z,0.50
2018-07-03T03:57:11.410Z,0.20
2018-07-03T03:59:37.310Z,0.27
2018-07-03T04:02:03.295Z,0.70
2018-07-03T04:04:29.198Z,0.30
2018-07-03T04:06:55.121Z,0.63
2018-07-03T04:09:21.059Z,0.37
2018-07-03T04:11:47.714Z,0.30
2018-07-03T04:14:13.634Z,0.70
2018-07-03T04:16:39.597Z,0.40
2018-07-03T04:19:05.530Z,0.47
2018-07-03T04:21:31.447Z,0.37
2018-07-03T04:23:57.361Z,0.20
2018-07-03T04:26:23.288Z,0.30
2018-07-03T04:28:49.204Z,0.43
2018-07-03T04:31:15.132Z,0.50
2018-07-03T04:33:41.054Z,0.50
2018-07-03T04:36:06.988Z,0.43
2018-07-03T04:38:32.918Z,0.93
2018-07-03T04:40:58.826Z,0.73
2018-07-03T04:43:24.758Z,0.40
2018-07-03T04:45:50.672Z,0.60
2018-07-03T04:48:16.600Z,0.60
2018-07-03T04:50:42.511Z,0.37
2018-07-03T04:53:08.449Z,0.20
2018-07-03T04:55:34.358Z,0.30
2018-07-03T04:58:00.249Z,0.50
2018-07-03T05:00:26.181Z,0.40
2018-07-03T05:02:52.093Z,0.40
2018-07-03T05:05:18.010Z,0.40
2018-07-03T05:07:43.909Z,0.20
2018-07-03T05:10:09.891Z,0.27
2018-07-03T05:12:35.774Z,0.20
2018-07-03T05:15:01.696Z,0.40
2018-07-03T05:17:27.610Z,0.40
2018-07-03T05:19:53.556Z,0.57
2018-07-03T05:22:19.490Z,0.27
2018-07-03T05:24:45.513Z,0.20
2018-07-03T05:27:11.379Z,0.37
2018-07-03T05:29:38.019Z,0.60
2018-07-03T05:32:04.681Z,0.30
2018-07-03T05:34:30.587Z,0.40
2018-07-03T05:36:56.505Z,0.40
2018-07-03T05:39:22.396Z,0.50
2018-07-03T05:41:48.331Z,0.50
2018-07-03T05:44:14.978Z,0.63
2018-07-03T05:46:41.664Z,0.60
2018-07-03T05:49:07.572Z,0.93
2018-07-03T05:51:33.475Z,1.47
2018-07-03T05:53:59.404Z,1.30
2018-07-03T05:56:25.407Z,1.57
2018-07-03T05:58:51.271Z,0.97
2018-07-03T06:01:17.185Z,1.10
2018-07-03T06:03:43.112Z,0.90
2018-07-03T06:06:09.066Z,1.03
2018-07-03T06:08:34.966Z,1.10
2018-07-03T06:11:01.066Z,1.30
2018-07-03T06:13:26.788Z,0.90
2018-07-03T06:15:52.712Z,1.10
2018-07-03T06:18:18.610Z,1.33
2018-07-03T06:20:44.550Z,1.10
2018-07-03T06:23:10.454Z,1.03
2018-07-03T06:25:36.365Z,1.00
2018-07-03T06:28:03.025Z,1.23
2018-07-03T06:30:28.931Z,1.13
2018-07-03T06:32:54.858Z,1.67
2018-07-03T06:35:20.764Z,1.10
2018-07-03T06:37:47.443Z,1.00
2018-07-03T06:40:13.344Z,1.17
2018-07-03T06:42:39.251Z,1.10
2018-07-03T06:45:05.923Z,0.93
2018-07-03T06:47:31.826Z,1.17
2018-07-03T06:49:57.749Z,1.00
2018-07-03T06:52:23.659Z,0.90
2018-07-03T06:54:49.604Z,1.10
2018-07-03T06:57:15.529Z,1.10
2018-07-03T06:59:41.437Z,0.90
2018-07-03T07:02:07.360Z,1.10
2018-07-03T07:04:33.274Z,1.00
2018-07-03T07:06:59.228Z,0.77
2018-07-03T07:09:25.223Z,0.70
2018-07-03T07:11:51.099Z,1.10
2018-07-03T07:14:16.997Z,0.83
2018-07-03T07:16:42.920Z,0.93
2018-07-03T07:19:08.825Z,0.67
2018-07-03T07:21:34.726Z,0.80
2018-07-03T07:24:00.713Z,0.60
2018-07-03T07:26:27.385Z,0.60
2018-07-03T07:28:53.316Z,0.53
2018-07-03T07:31:19.223Z,0.47
2018-07-03T07:33:45.169Z,0.60
2018-07-03T07:36:11.085Z,0.85
2018-07-03T07:38:37.012Z,0.68
2018-07-03T07:41:02.900Z,0.60
2018-07-03T07:43:28.804Z,0.70
2018-07-03T07:45:55.507Z,0.80
2018-07-03T07:48:21.407Z,0.75
2018-07-03T07:50:47.359Z,0.60
2018-07-03T07:53:13.283Z,0.52
2018-07-03T07:55:39.221Z,0.60
2018-07-03T07:58:05.151Z,0.50
2018-07-03T08:00:31.068Z,0.55
2018-07-03T08:02:57.751Z,0.60
2018-07-03T08:05:23.706Z,0.70
2018-07-03T08:07:49.614Z,0.70
2018-07-03T08:10:15.520Z,0.60
2018-07-03T08:12:41.468Z,0.50
2018-07-03T08:15:07.382Z,0.73
2018-07-03T08:17:33.307Z,0.60
2018-07-03T08:19:59.239Z,0.70
2018-07-03T08:22:25.379Z,0.85
2018-07-03T08:24:51.278Z,0.80
2018-07-03T08:27:17.183Z,0.70
2018-07-03T08:29:43.106Z,0.52
2018-07-03T08:32:09.007Z,0.62
2018-07-03T08:34:34.945Z,0.57
2018-07-03T08:37:00.857Z,0.60
2018-07-03T08:39:26.787Z,0.50
2018-07-03T08:41:52.711Z,0.50
2018-07-03T08:44:18.642Z,0.50
2018-07-03T08:46:44.555Z,0.40
2018-07-03T08:49:10.476Z,0.50
2018-07-03T08:51:36.442Z,0.68
2018-07-03T08:54:02.314Z,0.60
2018-07-03T08:56:28.269Z,0.77
2018-07-03T08:58:54.183Z,0.60
2018-07-03T09:01:20.849Z,0.50
2018-07-03T09:03:46.798Z,0.60
2018-07-03T09:06:12.691Z,0.60
2018-07-03T09:08:38.598Z,0.50
2018-07-03T09:11:04.525Z,0.50
2018-07-03T09:13:30.443Z,0.70
2018-07-03T09:15:56.383Z,0.70
2018-07-03T09:18:23.032Z,0.68
2018-07-03T09:20:49.686Z,0.70
2018-07-03T09:23:15.610Z,0.90
2018-07-03T09:25:41.514Z,0.55
2018-07-03T09:28:08.174Z,0.75
2018-07-03T09:30:34.149Z,0.60
2018-07-03T09:33:00.049Z,0.60
2018-07-03T09:35:25.976Z,0.55
2018-07-03T09:37:51.922Z,0.70
2018-07-03T09:40:17.830Z,0.60
2018-07-03T09:42:43.772Z,0.60
2018-07-03T09:45:10.425Z,0.60
2018-07-03T09:47:36.358Z,0.70
2018-07-03T09:50:02.304Z,0.65
2018-07-03T09:52:28.217Z,0.73
2018-07-03T09:54:54.164Z,0.60
2018-07-03T09:57:20.095Z,0.65
2018-07-03T09:59:46.075Z,0.62
2018-07-03T10:02:12.022Z,0.60
2018-07-03T10:04:37.979Z,0.77
2018-07-03T10:07:03.888Z,0.60
2018-07-03T10:09:29.809Z,0.80
2018-07-03T10:11:55.728Z,0.80
2018-07-03T10:14:21.630Z,0.60
2018-07-03T10:16:47.560Z,0.80
2018-07-03T10:19:13.467Z,0.70
2018-07-03T10:21:39.391Z,0.90
2018-07-03T10:24:05.294Z,0.67
2018-07-03T10:26:31.198Z,0.50
2018-07-03T10:28:57.132Z,0.60
2018-07-03T10:31:23.090Z,0.70
2018-07-03T10:33:48.995Z,0.90
2018-07-03T10:36:14.894Z,0.60
2018-07-03T10:38:40.793Z,0.60
2018-07-03T10:41:07.501Z,0.70
2018-07-03T10:43:33.401Z,0.70
2018-07-03T10:45:59.403Z,0.70
2018-07-03T10:48:25.309Z,0.90
2018-07-03T10:50:51.239Z,0.77
2018-07-03T10:53:17.169Z,0.67
2018-07-03T10:55:43.106Z,0.50
2018-07-03T10:58:09.006Z,0.70
2018-07-03T11:00:34.954Z,0.70
2018-07-03T11:03:00.857Z,0.60
2018-07-03T11:05:26.786Z,0.60
2018-07-03T11:07:52.702Z,0.60
2018-07-03T11:10:18.608Z,0.67
2018-07-03T11:12:44.527Z,0.70
2018-07-03T11:15:10.460Z,0.50
2018-07-03T11:17:36.377Z,0.73
2018-07-03T11:20:02.360Z,0.60
2018-07-03T11:22:28.259Z,0.67
2018-07-03T11:24:54.177Z,0.60
2018-07-03T11:27:20.093Z,0.80
2018-07-03T11:29:46.033Z,0.50
2018-07-03T11:32:11.937Z,0.60
2018-07-03T11:34:37.872Z,0.60
2018-07-03T11:37:03.782Z,0.70
2018-07-03T11:39:29.920Z,0.83
2018-07-03T11:41:55.868Z,0.70
2018-07-03T11:44:22.527Z,0.70
2018-07-03T11:46:49.195Z,0.70
2018-07-03T11:49:15.097Z,0.63
2018-07-03T11:51:41.031Z,0.70
2018-07-03T11:54:06.959Z,0.60
2018-07-03T11:56:32.888Z,0.73
2018-07-03T11:58:58.806Z,0.60
2018-07-03T12:01:24.770Z,0.70
2018-07-03T12:03:50.679Z,0.93
2018-07-03T12:06:16.583Z,0.70
2018-07-03T12:08:42.515Z,0.97
2018-07-03T12:11:08.476Z,0.70
2018-07-03T12:13:35.245Z,0.80
2018-07-03T12:16:01.183Z,0.90
2018-07-03T12:18:27.154Z,0.70
2018-07-03T12:20:53.836Z,0.90
2018-07-03T12:23:19.744Z,0.80
2018-07-03T12:25:45.669Z,0.90
2018-07-03T12:28:11.585Z,0.80
2018-07-03T12:30:37.507Z,1.20
2018-07-03T12:33:03.410Z,0.80
2018-07-03T12:35:30.083Z,0.70
2018-07-03T12:37:56.000Z,0.90
2018-07-03T12:40:21.960Z,0.70
2018-07-03T12:42:47.861Z,0.87
2018-07-03T12:45:13.767Z,1.17
2018-07-03T12:47:39.698Z,1.10
2018-07-03T12:50:05.606Z,0.90
2018-07-03T12:52:31.521Z,0.90
2018-07-03T12:54:57.458Z,1.10
2018-07-03T12:57:23.396Z,0.90
2018-07-03T12:59:49.344Z,0.90
2018-07-03T13:02:15.293Z,1.40
2018-07-03T13:04:41.264Z,1.20
2018-07-03T13:07:07.183Z,1.07
2018-07-03T13:09:33.106Z,0.77
2018-07-03T13:11:59.026Z,0.97
2018-07-03T13:14:24.966Z,0.80
2018-07-03T13:16:50.892Z,1.23
2018-07-03T13:19:16.819Z,0.80
2018-07-03T13:21:42.722Z,1.10
2018-07-03T13:24:08.678Z,1.20
2018-07-03T13:26:35.329Z,1.00
2018-07-03T13:29:01.247Z,1.13
2018-07-03T13:31:27.210Z,1.30
2018-07-03T13:33:53.095Z,1.10
2018-07-03T13:36:19.030Z,1.20
2018-07-03T13:38:44.934Z,1.00
2018-07-03T13:41:11.592Z,1.10
2018-07-03T13:43:37.526Z,1.20
2018-07-03T13:46:03.475Z,0.90
2018-07-03T13:48:29.428Z,1.10
2018-07-03T13:50:56.066Z,0.90
2018-07-03T13:53:22.026Z,1.43
2018-07-03T13:55:47.948Z,1.20
2018-07-03T13:58:13.888Z,1.17
2018-07-03T14:00:39.804Z,1.10
2018-07-03T14:03:05.774Z,1.20
2018-07-03T14:05:32.426Z,1.00
2018-07-03T14:07:59.079Z,0.93
2018-07-03T14:10:25.054Z,0.87
2018-07-03T14:12:50.954Z,1.00
2018-07-03T14:15:16.878Z,1.20
2018-07-03T14:17:42.784Z,1.00
2018-07-03T14:20:08.708Z,1.17
2018-07-03T14:22:35.371Z,1.23
2018-07-03T14:25:01.315Z,0.90
2018-07-03T14:27:27.978Z,1.00
2018-07-03T14:29:53.882Z,1.10
2018-07-03T14:32:20.544Z,0.90
2018-07-03T14:34:46.458Z,1.10
2018-07-03T14:37:12.390Z,0.90
2018-07-03T14:39:38.292Z,0.83
2018-07-03T14:42:04.240Z,0.97
2018-07-03T14:44:30.164Z,0.97
2018-07-03T14:46:56.093Z,0.80
2018-07-03T14:49:22.017Z,0.90
2018-07-03T14:51:47.923Z,0.80
2018-07-03T14:54:13.879Z,0.97
2018-07-03T14:56:39.798Z,0.80
2018-07-03T14:59:05.730Z,0.70
2018-07-03T15:01:31.629Z,0.73
2018-07-03T15:03:57.561Z,0.83
2018-07-03T15:06:23.466Z,0.53
2018-07-03T15:08:50.145Z,0.80
2018-07-03T15:11:16.062Z,0.90
2018-07-03T15:13:41.982Z,0.90
2018-07-03T15:16:07.920Z,0.80
2018-07-03T15:18:34.574Z,0.70
2018-07-03T15:21:01.260Z,0.60
2018-07-03T15:23:27.187Z,0.80
2018-07-03T15:25:53.137Z,0.80
2018-07-03T15:28:19.783Z,0.90
2018-07-03T15:30:46.443Z,1.00
2018-07-03T15:33:12.343Z,0.90
2018-07-03T15:35:39.017Z,0.80
2018-07-03T15:38:04.927Z,0.80
2018-07-03T15:40:30.832Z,0.80
2018-07-03T15:42:57.488Z,0.93
2018-07-03T15:45:23.391Z,0.87
2018-07-03T15:47:50.072Z,0.90
2018-07-03T15:50:15.995Z,1.10
2018-07-03T15:52:48.715Z,1.10
2018-07-03T15:55:14.610Z,1.13
2018-07-03T15:57:40.531Z,0.80
2018-07-03T16:00:07.219Z,0.80
2018-07-03T16:02:33.868Z,0.90
2018-07-03T16:04:59.818Z,1.00
2018-07-03T16:07:25.734Z,0.90
2018-07-03T16:09:51.651Z,0.90
2018-07-03T16:12:17.595Z,0.70
2018-07-03T16:14:43.501Z,1.00
2018-07-03T16:17:09.403Z,0.80
2018-07-03T16:19:35.345Z,0.80
2018-07-03T16:22:01.248Z,0.83
2018-07-03T16:24:27.169Z,0.90
2018-07-03T16:26:53.070Z,0.97
2018-07-03T16:29:19.713Z,0.90
2018-07-03T16:31:45.643Z,1.10
2018-07-03T16:34:11.551Z,0.80
2018-07-03T16:36:38.252Z,1.00
2018-07-03T16:39:04.163Z,0.83
2018-07-03T16:41:30.138Z,1.00
2018-07-03T16:43:56.782Z,1.00
2018-07-03T16:46:23.459Z,0.97
2018-07-03T16:48:49.362Z,0.90
2018-07-03T16:51:15.265Z,0.90
2018-07-03T16:53:41.210Z,1.00
2018-07-03T16:56:07.126Z,1.40
2018-07-03T16:58:33.074Z,1.03
2018-07-03T17:00:58.981Z,0.90
2018-07-03T17:03:24.934Z,0.80
2018-07-03T17:05:50.854Z,0.80
2018-07-03T17:08:16.786Z,0.77
2018-07-03T17:10:42.682Z,0.70
2018-07-03T17:13:08.587Z,1.20
2018-07-03T17:15:34.513Z,0.97
2018-07-03T17:18:00.443Z,0.90
2018-07-03T17:20:26.367Z,0.73
2018-07-03T17:22:52.274Z,1.00
2018-07-03T17:25:18.191Z,1.10
2018-07-03T17:27:44.103Z,1.17
2018-07-03T17:30:10.079Z,0.90
2018-07-03T17:32:35.988Z,0.90
2018-07-03T17:35:01.893Z,0.90
2018-07-03T17:37:27.831Z,0.90
2018-07-03T17:39:53.728Z,1.13
2018-07-03T17:42:19.658Z,1.00
2018-07-03T17:44:45.567Z,0.97
2018-07-03T17:47:11.504Z,0.97
2018-07-03T17:49:37.411Z,1.10
2018-07-03T17:52:03.332Z,1.17
2018-07-03T17:54:29.242Z,0.90
2018-07-03T17:56:55.195Z,1.03
2018-07-03T17:59:21.205Z,1.03
2018-07-03T18:01:47.136Z,1.30
2018-07-03T18:04:13.069Z,1.00
2018-07-03T18:06:38.995Z,0.93
2018-07-03T18:09:04.930Z,1.10
2018-07-03T18:11:30.849Z,1.20
2018-07-03T18:13:56.852Z,0.90
2018-07-03T18:16:22.774Z,1.30
2018-07-03T18:18:48.695Z,1.00
2018-07-03T18:21:14.623Z,1.20
2018-07-03T18:23:40.544Z,1.10
2018-07-03T18:26:06.475Z,0.93
2018-07-03T18:28:32.393Z,1.20
2018-07-03T18:30:58.327Z,1.10
2018-07-03T18:33:24.224Z,1.13
2018-07-03T18:35:50.141Z,1.10
2018-07-03T18:38:16.068Z,1.23
2018-07-03T18:40:41.975Z,1.10
2018-07-03T18:43:07.906Z,0.80
2018-07-03T18:45:33.885Z,0.90
2018-07-03T18:47:59.953Z,1.23
2018-07-03T18:50:25.858Z,0.80
2018-07-03T18:52:51.788Z,0.90
2018-07-03T18:55:17.730Z,0.90
2018-07-03T18:57:43.633Z,1.10
2018-07-03T19:00:09.579Z,1.00
2018-07-03T19:02:35.476Z,1.17
2018-07-03T19:05:01.413Z,0.93
2018-07-03T19:07:27.316Z,1.07
2018-07-03T19:09:53.243Z,1.40
2018-07-03T19:12:19.174Z,0.83
2018-07-03T19:14:45.078Z,1.40
2018-07-03T19:17:11.046Z,1.13
2018-07-03T19:19:37.699Z,1.00
2018-07-03T19:22:04.379Z,1.03
2018-07-03T19:24:30.291Z,1.30
2018-07-03T19:26:56.214Z,1.50
2018-07-03T19:29:22.135Z,1.30
2018-07-03T19:31:48.053Z,1.10
2018-07-03T19:34:14.052Z,1.00
2018-07-03T19:36:39.909Z,1.17
2018-07-03T19:39:05.848Z,1.07
2018-07-03T19:41:31.763Z,1.30
2018-07-03T19:43:57.663Z,1.13
2018-07-03T19:46:23.596Z,1.37
2018-07-03T19:48:49.515Z,1.60
2018-07-03T19:51:15.443Z,1.20
2018-07-03T19:53:41.375Z,1.10
2018-07-03T19:56:07.319Z,1.03
2018-07-03T19:58:33.221Z,1.60
2018-07-03T20:00:59.137Z,1.00
2018-07-03T20:03:25.058Z,1.03
2018-07-03T20:05:50.968Z,1.10
2018-07-03T20:08:16.910Z,1.07
2018-07-03T20:10:42.834Z,1.03
2018-07-03T20:13:08.754Z,1.10
2018-07-03T20:15:34.690Z,1.10
2018-07-03T20:18:00.590Z,0.90
2018-07-03T20:20:26.522Z,1.10
2018-07-03T20:22:52.454Z,1.07
2018-07-03T20:25:18.388Z,0.93
2018-07-03T20:27:45.080Z,1.07
2018-07-03T20:30:11.061Z,1.37
2018-07-03T20:32:37.020Z,1.30
2018-07-03T20:35:02.940Z,1.20
2018-07-03T20:37:28.892Z,1.20
2018-07-03T20:39:54.803Z,1.10
2018-07-03T20:42:20.750Z,1.60
2018-07-03T20:44:46.663Z,1.20
2018-07-03T20:47:13.347Z,1.60
2018-07-03T20:49:39.277Z,1.40
2018-07-03T20:52:05.235Z,1.00
2018-07-03T20:54:31.159Z,1.30
2018-07-03T20:56:57.169Z,1.13
2018-07-03T20:59:23.057Z,0.83
2018-07-03T21:01:48.968Z,1.00
2018-07-03T21:04:15.123Z,1.10
2018-07-03T21:06:40.855Z,1.23
2018-07-03T21:09:06.776Z,1.10
2018-07-03T21:11:32.735Z,1.20
2018-07-03T21:13:59.417Z,0.90
2018-07-03T21:16:25.314Z,0.80
2018-07-03T21:18:52.006Z,1.13
2018-07-03T21:21:17.907Z,1.00
2018-07-03T21:23:43.851Z,1.50
2018-07-03T21:26:09.988Z,0.90
2018-07-03T21:28:35.898Z,1.40
2018-07-03T21:31:02.124Z,1.30
2018-07-03T21:33:28.148Z,0.97
2018-07-03T21:35:54.103Z,1.40
2018-07-03T21:38:20.003Z,0.90
2018-07-03T21:40:45.933Z,0.90
2018-07-03T21:43:11.843Z,1.10
2018-07-03T21:45:37.754Z,0.97
2018-07-03T21:48:03.695Z,1.07
2018-07-03T21:50:29.592Z,0.83
2018-07-03T21:52:56.259Z,0.77
2018-07-03T21:55:22.158Z,0.90
2018-07-03T21:57:48.092Z,0.80
2018-07-03T22:00:14.009Z,0.90
2018-07-03T22:02:39.982Z,0.97
2018-07-03T22:05:05.895Z,0.83
2018-07-03T22:07:31.807Z,0.97
2018-07-03T22:09:58.472Z,1.00
2018-07-03T22:12:24.385Z,0.83
2018-07-03T22:14:50.312Z,1.07
2018-07-03T22:17:16.213Z,1.00
2018-07-03T22:19:42.877Z,1.07
2018-07-03T22:22:08.891Z,1.10
2018-07-03T22:24:34.743Z,0.80
2018-07-03T22:27:00.675Z,1.00
2018-07-03T22:29:27.522Z,0.80
2018-07-03T22:31:53.437Z,1.10
2018-07-03T22:34:20.084Z,1.10
2018-07-03T22:36:46.002Z,0.87
2018-07-03T22:39:11.906Z,0.80
2018-07-03T22:41:37.848Z,1.20
2018-07-03T22:44:03.776Z,0.90
2018-07-03T22:46:29.696Z,0.87
2018-07-03T22:48:55.613Z,1.00
2018-07-03T22:51:21.514Z,1.20
2018-07-03T22:53:47.446Z,1.10
2018-07-03T22:56:13.366Z,1.10
2018-07-03T22:58:39.296Z,1.40
2018-07-03T23:01:05.207Z,1.17
2018-07-03T23:03:31.356Z,1.00
2018-07-03T23:05:57.280Z,1.03
2018-07-03T23:08:23.196Z,0.70
2018-07-03T23:10:49.134Z,1.10
2018-07-03T23:13:15.788Z,1.20
2018-07-03T23:15:42.446Z,1.33
2018-07-03T23:18:08.371Z,0.97
2018-07-03T23:20:34.307Z,0.87
2018-07-03T23:23:00.215Z,1.07
2018-07-03T23:25:26.130Z,0.83
2018-07-03T23:27:52.059Z,1.00
2018-07-03T23:30:17.978Z,1.00
2018-07-03T23:32:43.915Z,1.13
2018-07-03T23:35:09.824Z,1.00
2018-07-03T23:37:35.748Z,1.10
2018-07-03T23:40:01.671Z,1.20
2018-07-03T23:42:27.636Z,0.97
2018-07-03T23:44:53.561Z,0.90
2018-07-03T23:47:19.482Z,0.83
2018-07-03T23:49:45.434Z,1.00
2018-07-03T23:52:12.079Z,0.90
2018-07-03T23:54:38.014Z,1.30
2018-07-03T23:57:03.923Z,0.90
2018-07-03T23:59:29.855Z,0.87
